• Join FlightAware (Why Join?)
  • Login
  • US Flag 
09:37PM EDT


 

Airport Tracker/Info


-or-


 

Live Flight TrackerFlight Track Log ✈ USC105 ✈ 24-Oct-2013 ✈ KDPA - KYIP

Flight Track Log - Related Links

Times and Time Zones

All times are in EDT time to prevent confusion due to time zone crossing. See the USC105 flight status page for this flight to view local times or setup timezone preferences in your user account.

Time Position Orientation Groundspeed Altitude Reporting Facility
EDT Latitude Longitude Course Direction KTS MPH feet Rate Location/Type
05:55AM 41.7830 -88.1720 107° East 146 168 5,800  Level FlightAware
05:56AM 41.7790 -88.1310 97° East 162 186 5,800 60 Level FlightAware
05:57AM 41.7722 -88.0600 97° East 192 221 5,900  Climbing Chicago Center
05:58AM 41.7694 -87.9853 93° East 200 230 5,800  Descending Chicago Center
06:03AM 41.7960 -87.6430 93° East 196 226 5,900  Climbing FlightAware
06:03AM 41.7990 -87.6180 81° East 196 226 5,900 60 Level FlightAware
06:04AM 41.8108 -87.5522 81° East 195 224 6,000 60 Climbing Chicago Center
06:05AM 41.8233 -87.4811 77° East 196 226 6,000  Level Chicago Center
06:06AM 41.8328 -87.4097 80° East 196 226 6,000  Level Chicago Center
06:07AM 41.8375 -87.3361 85° East 196 226 6,000 -60 Level Chicago Center
06:12AM 41.8760 -87.0020 85° East 196 226 5,900 -60 Descending FlightAware
06:12AM 41.8790 -86.9750 82° East 196 226 5,900  Level FlightAware
06:14AM 41.8980 -86.8550 78° East 196 226 5,900 -60 Level FlightAware
06:14AM 41.9030 -86.7990 83° East 211 243 5,800 -120 Descending FlightAware
06:15AM 41.9070 -86.7700 79° East 211 243 5,800  Level FlightAware
06:16AM 41.9110 -86.7080 85° East 211 243 5,800  Level FlightAware
06:17AM 41.9150 -86.6460 85° East 173 199 5,900 60 Climbing FlightAware
06:17AM 41.9230 -86.6050 75° East 196 226 5,900  Level FlightAware
06:18AM 41.9260 -86.5790 81° East 196 226 5,900  Level FlightAware
06:18AM 41.9350 -86.5181 81° East 191 220 5,900  Level Cleveland Center
06:19AM 41.9375 -86.4619 87° East 193 222 5,900 -240 Level Chicago Center
06:20AM 41.9450 -86.3892 82° East 196 226 5,500 -540 Descending Chicago Center
06:21AM 41.9531 -86.3133 82° East 203 234 4,900 -300 Descending Chicago Center
06:22AM 41.9661 -86.2392 77° East 205 236 5,000  Climbing Chicago Center
06:23AM 41.9747 -86.1650 81° East 202 232 5,000  Level Chicago Center
06:24AM 41.9881 -86.0917 76° East 201 231 5,000  Level Chicago Center
06:25AM 41.9947 -86.0147 83° East 206 237 5,000  Level Chicago Center
06:26AM 42.0011 -85.9386 84° East 206 237 5,000  Level Chicago Center
06:27AM 42.0108 -85.8622 80° East 206 237 5,000  Level Chicago Center
06:28AM 42.0167 -85.7861 84° East 206 237 5,000  Level Chicago Center
06:29AM 42.0278 -85.7103 79° East 206 237 5,100  Climbing Chicago Center
06:30AM 42.0372 -85.6364 80° East 203 234 5,000 -60 Descending Chicago Center
06:31AM 42.0461 -85.5633 81° East 200 230 5,000  Level Chicago Center
06:32AM 42.0517 -85.4906 84° East 196 226 5,000  Level Chicago Center
06:33AM 42.0600 -85.4183 81° East 195 224 5,000  Level Chicago Center
06:34AM 42.0681 -85.3464 81° East 195 224 5,000  Level Chicago Center
06:35AM 42.0747 -85.2736 83° East 195 224 5,000  Level Chicago Center
06:36AM 42.0856 -85.2022 78° East 195 224 5,000  Level Chicago Center
06:37AM 42.0925 -85.1300 83° East 194 223 5,000  Level Chicago Center
06:38AM 42.0981 -85.0586 84° East 192 221 5,000  Level Chicago Center
06:39AM 42.1100 -84.9894 77° East 191 220 5,000  Level Chicago Center
06:40AM 42.1186 -84.9183 81° East 191 220 5,000  Level Chicago Center
06:41AM 42.1211 -84.8478 87° East 189 217 5,000  Level Chicago Center
06:42AM 42.1283 -84.7772 82° East 190 219 5,100  Climbing Chicago Center
06:43AM 42.1328 -84.7064 85° East 190 219 5,100 -60 Level Chicago Center
06:44AM 42.1389 -84.6350 83° East 191 220 5,000 -60 Descending Chicago Center
06:45AM 42.1469 -84.5500 83° East 191 220 5,000  Level Chicago Center
06:46AM 42.1542 -84.4922 80° East 189 217 5,100  Climbing Chicago Center
06:47AM 42.1647 -84.4236 78° East 187 215 5,100 -180 Level Chicago Center
06:48AM 42.1708 -84.3747 80° East 190 219 4,900 -180 Descending Cleveland Center
06:48AM 42.1722 -84.3150 88° East 192 221 4,900  Level Cleveland Center
06:49AM 42.1722 -84.3028 90° East 192 221 4,900  Level Cleveland Center
06:49AM 42.1742 -84.2419 88° East 190 219 4,900  Level Cleveland Center
06:50AM 42.1739 -84.2319 92° East 190 219 4,900  Level Cleveland Center
06:50AM 42.1753 -84.1803 88° East 186 214 4,900  Level Cleveland Center
06:51AM 42.1764 -84.1636 85° East 186 214 4,900  Level Cleveland Center
06:52AM 42.1836 -84.0961 82° East 184 212 4,900  Level Cleveland Center
06:53AM 42.1939 -84.0314 78° East 178 205 4,900 -420 Level Cleveland Center
06:54AM 42.2036 -83.9700 78° East 194 223 4,200 -840 Descending Cleveland Center
06:54AM 42.2039 -83.9619 87° East 185 213 4,100 -720 Descending Cleveland Center
06:55AM 42.2119 -83.8953 81° East 196 226 3,500 -720 Descending Cleveland Center
06:55AM 42.2103 -83.8878 107° East 195 224 3,400 -660 Descending Cleveland Center
06:56AM 42.2186 -83.8117 82° East 194 223 2,800 -600 Descending Cleveland Center
06:56AM 42.2178 -83.8006 96° East 196 226 2,800 60 Level Cleveland Center
06:57AM 42.2286 -83.7425 76° East 167 192 2,900 60 Climbing Cleveland Center
06:57AM 42.2278 -83.7372 102° East 185 213 2,900 -780 Level Cleveland Center
06:58AM 42.2367 -83.6725 79° East 178 205 2,100 -540 Descending Cleveland Center
06:59AM 42.2406 -83.6203 84° East 177 204 2,000 -300 Descending Cleveland Center
06:59AM 42.2414 -83.6044 86° East 180 207 1,800 -1,020 Descending Cleveland Center
07:00AM 42.2431 -83.5614 87° East 148 170 1,000 -900 Descending Cleveland Center
07:00AM 42.2431 -83.5492 90° East 167 192 900 -360 Descending Cleveland Center